createdAt,value
2023-04-02T00:02:22.012Z,10.29
2023-04-02T00:05:34.857Z,10.35
2023-04-02T00:08:41.300Z,10.23
2023-04-02T00:11:45.018Z,10.25
2023-04-02T00:14:49.884Z,10.13
2023-04-02T00:17:52.349Z,10.17
2023-04-02T00:21:25.115Z,10.23
2023-04-02T00:24:27.666Z,10.15
2023-04-02T00:27:31.080Z,10.03
2023-04-02T00:30:33.549Z,10.03
2023-04-02T00:33:36.115Z,10.05
2023-04-02T00:36:38.557Z,10.07
2023-04-02T00:39:41.638Z,10.11
2023-04-02T00:42:44.945Z,10.15
2023-04-02T00:45:51.169Z,10.29
2023-04-02T00:48:59.381Z,10.27
2023-04-02T00:52:06.725Z,10.38
2023-04-02T00:55:18.025Z,10.41
2023-04-02T00:58:27.323Z,10.41
2023-04-02T01:01:36.696Z,10.39
2023-04-02T01:04:39.330Z,10.34
2023-04-02T01:08:10.705Z,10.38
2023-04-02T01:11:14.158Z,10.40
2023-04-02T01:14:39.303Z,10.41
2023-04-02T01:18:14.369Z,10.38
2023-04-02T01:21:42.253Z,10.41
2023-04-02T01:24:44.664Z,10.39
2023-04-02T01:28:10.237Z,10.40
2023-04-02T01:31:12.674Z,10.41
2023-04-02T01:34:17.895Z,10.40
2023-04-02T01:37:50.675Z,10.42
2023-04-02T01:40:56.422Z,10.43
2023-04-02T01:44:03.343Z,10.60
2023-04-02T01:47:08.494Z,10.71
2023-04-02T01:50:22.014Z,10.54
2023-04-02T01:53:26.001Z,10.45
2023-04-02T01:56:28.400Z,10.51
2023-04-02T01:59:33.374Z,10.53
2023-04-02T02:02:38.116Z,10.54
2023-04-02T02:05:41.114Z,10.61
2023-04-02T02:08:51.978Z,10.51
2023-04-02T02:11:54.651Z,10.48
2023-04-02T02:14:57.105Z,10.41
2023-04-02T02:18:03.248Z,10.49
2023-04-02T02:21:05.918Z,10.47
2023-04-02T02:24:24.904Z,10.48
2023-04-02T02:27:44.170Z,10.48
2023-04-02T02:30:49.405Z,10.52
2023-04-02T02:33:53.237Z,10.47
2023-04-02T02:37:16.561Z,10.42
2023-04-02T02:40:29.417Z,10.38
2023-04-02T02:43:31.809Z,10.41
2023-04-02T02:46:34.487Z,10.32
2023-04-02T02:49:41.879Z,10.35
2023-04-02T02:52:46.676Z,10.38
2023-04-02T02:55:53.545Z,10.35
2023-04-02T02:59:00.416Z,10.39
2023-04-02T03:02:08.616Z,10.38
2023-04-02T03:05:20.630Z,10.36
2023-04-02T03:08:37.238Z,10.44
2023-04-02T03:12:08.694Z,10.47
2023-04-02T03:15:34.657Z,10.51
2023-04-02T03:18:58.289Z,10.51
2023-04-02T03:22:06.051Z,10.49
2023-04-02T03:25:24.795Z,10.47
2023-04-02T03:28:34.830Z,10.44
2023-04-02T03:32:07.862Z,10.47
2023-04-02T03:35:22.854Z,10.41
2023-04-02T03:38:34.854Z,10.34
2023-04-02T03:41:45.372Z,10.39
2023-04-02T03:45:11.969Z,10.43
2023-04-02T03:48:18.403Z,10.43
2023-04-02T03:51:32.938Z,10.39
2023-04-02T03:54:38.480Z,10.34
2023-04-02T03:57:52.245Z,10.24
2023-04-02T04:01:06.166Z,10.19
2023-04-02T04:04:17.344Z,10.14
2023-04-02T04:07:40.458Z,10.07
2023-04-02T04:10:43.053Z,10.08
2023-04-02T04:14:09.613Z,10.11
2023-04-02T04:17:24.926Z,10.01
2023-04-02T04:20:36.581Z,10.11
2023-04-02T04:23:41.072Z,10.00
2023-04-02T04:26:57.771Z,9.93
2023-04-02T04:30:06.084Z,9.84
2023-04-02T04:33:16.332Z,9.81
2023-04-02T04:36:28.961Z,9.77
2023-04-02T04:39:58.186Z,9.90
2023-04-02T04:43:06.406Z,9.76
2023-04-02T04:46:13.017Z,9.79
2023-04-02T04:49:35.367Z,9.80
2023-04-02T04:52:39.872Z,9.80
2023-04-02T04:55:47.369Z,9.90
2023-04-02T04:59:07.425Z,9.98
2023-04-02T05:02:41.256Z,10.08
2023-04-02T05:05:43.957Z,10.02
2023-04-02T05:08:48.692Z,10.23
2023-04-02T05:12:16.345Z,10.36
2023-04-02T05:15:32.677Z,10.38
2023-04-02T05:18:46.060Z,10.46
2023-04-02T05:22:41.404Z,10.54
2023-04-02T05:25:55.352Z,10.70
2023-04-02T05:29:19.990Z,10.74
2023-04-02T05:32:30.461Z,10.82
2023-04-02T05:35:35.969Z,10.89
2023-04-02T05:38:40.768Z,10.95
2023-04-02T05:41:46.063Z,11.19
2023-04-02T05:45:13.612Z,11.29
2023-04-02T05:48:19.017Z,11.45
2023-04-02T05:51:24.891Z,11.67
2023-04-02T05:54:31.581Z,11.86
2023-04-02T05:57:43.850Z,11.98
2023-04-02T06:00:53.633Z,12.09
2023-04-02T06:04:18.672Z,12.32
2023-04-02T06:07:22.254Z,12.46
2023-04-02T06:10:36.964Z,12.56
2023-04-02T06:13:39.666Z,12.59
2023-04-02T06:16:46.824Z,12.87
2023-04-02T06:19:49.446Z,12.99
2023-04-02T06:22:57.198Z,13.06
2023-04-02T06:26:27.158Z,13.24
2023-04-02T06:29:41.421Z,13.54
2023-04-02T06:32:48.985Z,13.67
2023-04-02T06:35:52.524Z,13.68
2023-04-02T06:39:08.481Z,13.87
2023-04-02T06:42:26.722Z,13.94
2023-04-02T06:45:47.262Z,14.13
2023-04-02T06:49:17.831Z,14.21
2023-04-02T06:52:28.665Z,14.17
2023-04-02T06:55:53.609Z,14.58
2023-04-02T06:59:00.743Z,14.96
2023-04-02T07:02:22.649Z,15.25
2023-04-02T07:05:25.538Z,15.18
2023-04-02T07:08:29.596Z,14.94
2023-04-02T07:11:32.287Z,15.14
2023-04-02T07:14:37.944Z,15.28
2023-04-02T07:17:40.807Z,15.04
2023-04-02T07:20:44.264Z,15.12
2023-04-02T07:23:49.355Z,15.57
2023-04-02T07:26:52.140Z,15.54
2023-04-02T07:29:55.075Z,15.27
2023-04-02T07:32:57.540Z,15.31
2023-04-02T07:36:00.016Z,15.45
2023-04-02T07:39:02.883Z,15.47
2023-04-02T07:42:05.563Z,15.41
2023-04-02T07:45:08.672Z,15.49
2023-04-02T07:48:12.668Z,15.66
2023-04-02T07:51:26.169Z,15.63
2023-04-02T07:54:28.757Z,15.53
2023-04-02T07:57:31.433Z,15.67
2023-04-02T08:00:33.957Z,16.02
2023-04-02T08:03:36.858Z,16.04
2023-04-02T08:06:39.721Z,16.09
2023-04-02T08:09:42.188Z,16.11
2023-04-02T08:12:45.037Z,15.95
2023-04-02T08:15:47.525Z,16.14
2023-04-02T08:18:50.566Z,15.93
2023-04-02T08:21:54.468Z,16.01
2023-04-02T08:24:57.213Z,16.02
2023-04-02T08:28:01.569Z,16.08
2023-04-02T08:31:05.364Z,16.18
2023-04-02T08:34:08.117Z,16.10
2023-04-02T08:37:13.474Z,16.35
2023-04-02T08:40:24.920Z,16.78
2023-04-02T08:43:51.112Z,16.74
2023-04-02T08:46:56.946Z,16.80
2023-04-02T08:50:01.741Z,16.77
2023-04-02T08:53:06.508Z,16.69
2023-04-02T08:56:09.907Z,16.86
2023-04-02T08:59:21.352Z,17.28
2023-04-02T09:02:36.087Z,18.22
2023-04-02T09:05:41.168Z,18.60
2023-04-02T09:08:44.819Z,18.75
2023-04-02T09:11:53.336Z,18.57
2023-04-02T09:15:11.223Z,18.36
2023-04-02T09:18:17.731Z,18.60
2023-04-02T09:21:29.260Z,18.91
2023-04-02T09:24:31.836Z,19.50
2023-04-02T09:27:36.016Z,19.49
2023-04-02T09:30:38.348Z,19.06
2023-04-02T09:33:49.035Z,19.06
2023-04-02T09:36:52.154Z,19.05
2023-04-02T09:39:54.347Z,18.31
2023-04-02T09:43:19.943Z,17.92
2023-04-02T09:46:26.047Z,18.15
2023-04-02T09:49:33.614Z,18.10
2023-04-02T09:52:36.472Z,17.97
2023-04-02T09:55:38.670Z,17.90
2023-04-02T09:58:42.014Z,17.83
2023-04-02T10:01:54.102Z,17.53
2023-04-02T10:04:56.787Z,17.85
2023-04-02T10:08:25.449Z,17.75
2023-04-02T10:11:43.597Z,17.76
2023-04-02T10:14:48.474Z,18.05
2023-04-02T10:17:57.914Z,18.13
2023-04-02T10:21:01.444Z,18.51
2023-04-02T10:24:17.821Z,18.69
2023-04-02T10:27:32.012Z,19.06
2023-04-02T10:31:01.671Z,19.32
2023-04-02T10:34:07.577Z,19.36
2023-04-02T10:37:48.959Z,19.31
2023-04-02T10:40:59.637Z,19.63
2023-04-02T10:44:24.240Z,20.35
2023-04-02T10:47:41.396Z,20.76
2023-04-02T10:51:01.804Z,21.15
2023-04-02T10:54:13.502Z,21.04
2023-04-02T10:57:18.981Z,21.18
2023-04-02T11:00:27.949Z,21.39
2023-04-02T11:03:37.498Z,20.77
2023-04-02T11:07:07.054Z,20.54
2023-04-02T11:10:16.482Z,19.90
2023-04-02T11:13:28.901Z,19.96
2023-04-02T11:16:31.516Z,20.23
2023-04-02T11:19:34.044Z,20.55
2023-04-02T11:22:36.365Z,21.35
2023-04-02T11:25:38.992Z,21.24
2023-04-02T11:28:41.417Z,22.98
2023-04-02T11:31:44.144Z,23.99
2023-04-02T11:35:03.091Z,25.17
2023-04-02T11:38:10.762Z,25.28
2023-04-02T11:41:13.163Z,26.05
2023-04-02T11:44:25.352Z,26.30
2023-04-02T11:47:28.684Z,23.70
2023-04-02T11:50:34.632Z,20.55
2023-04-02T11:53:37.171Z,19.50
2023-04-02T11:56:53.328Z,18.46
2023-04-02T12:00:18.579Z,18.50
2023-04-02T12:03:53.084Z,19.53
2023-04-02T12:07:07.565Z,21.93
2023-04-02T12:10:18.373Z,23.14
2023-04-02T12:13:41.802Z,24.71
2023-04-02T12:16:44.434Z,25.89
2023-04-02T12:19:55.466Z,26.20
2023-04-02T12:22:58.192Z,27.08
2023-04-02T12:26:02.389Z,27.18
2023-04-02T12:29:24.910Z,28.04
2023-04-02T12:32:29.939Z,27.55
2023-04-02T12:35:34.323Z,28.04
2023-04-02T12:38:47.103Z,28.66
2023-04-02T12:41:49.821Z,29.04
2023-04-02T12:44:52.226Z,28.82
2023-04-02T12:47:54.956Z,29.17
2023-04-02T12:50:57.901Z,29.08
2023-04-02T12:54:00.595Z,28.83
2023-04-02T12:57:27.731Z,28.69
2023-04-02T13:00:30.689Z,28.06
2023-04-02T13:03:36.503Z,28.13
2023-04-02T13:06:39.719Z,28.46
2023-04-02T13:09:46.176Z,24.68
2023-04-02T13:12:49.062Z,22.67
2023-04-02T13:16:04.112Z,21.13
2023-04-02T13:19:10.818Z,20.03
2023-04-02T13:22:30.836Z,19.49
2023-04-02T13:25:35.997Z,19.24
2023-04-02T13:28:38.667Z,21.34
2023-04-02T13:31:41.632Z,22.87
2023-04-02T13:34:44.065Z,24.53
2023-04-02T13:37:46.570Z,25.70
2023-04-02T13:40:49.213Z,24.52
2023-04-02T13:43:51.582Z,22.24
2023-04-02T13:46:54.663Z,20.78
2023-04-02T13:49:57.192Z,19.71
2023-04-02T13:53:04.604Z,19.33
2023-04-02T13:56:08.518Z,18.79
2023-04-02T13:59:11.061Z,18.44
2023-04-02T14:02:18.094Z,18.39
2023-04-02T14:05:38.889Z,18.50
2023-04-02T14:09:13.683Z,19.39
2023-04-02T14:12:31.492Z,19.33
2023-04-02T14:15:58.931Z,21.92
2023-04-02T14:19:07.629Z,22.98
2023-04-02T14:22:42.418Z,23.45
2023-04-02T14:26:02.200Z,23.50
2023-04-02T14:29:17.304Z,23.44
2023-04-02T14:32:24.646Z,23.35
2023-04-02T14:35:43.033Z,22.82
2023-04-02T14:38:48.367Z,23.09
2023-04-02T14:41:59.312Z,22.51
2023-04-02T14:45:28.349Z,21.07
2023-04-02T14:48:31.119Z,19.95
2023-04-02T14:51:41.672Z,19.05
2023-04-02T14:54:50.291Z,18.74
2023-04-02T14:57:53.679Z,18.24
2023-04-02T15:01:20.777Z,17.66
2023-04-02T15:04:39.320Z,17.12
2023-04-02T15:08:01.183Z,16.83
2023-04-02T15:11:18.048Z,16.75
2023-04-02T15:14:29.558Z,16.26
2023-04-02T15:17:33.228Z,15.95
2023-04-02T15:20:57.266Z,15.75
2023-04-02T15:24:48.911Z,15.23
2023-04-02T15:28:12.610Z,15.09
2023-04-02T15:31:15.381Z,14.89
2023-04-02T15:34:20.875Z,14.90
2023-04-02T15:37:43.213Z,14.50
2023-04-02T15:40:45.784Z,14.02
2023-04-02T15:43:55.874Z,13.73
2023-04-02T15:47:34.419Z,13.63
2023-04-02T15:50:44.856Z,13.43
2023-04-02T15:53:59.740Z,13.26
2023-04-02T15:57:27.860Z,13.38
2023-04-02T16:00:54.964Z,13.14
2023-04-02T16:04:19.651Z,12.94
2023-04-02T16:07:32.481Z,12.68
2023-04-02T16:10:41.978Z,12.86
2023-04-02T16:13:45.698Z,13.00
2023-04-02T16:16:49.191Z,13.20
2023-04-02T16:19:53.431Z,13.44
2023-04-02T16:23:05.717Z,13.65
2023-04-02T16:26:20.235Z,14.01
2023-04-02T16:29:40.754Z,14.27
2023-04-02T16:33:01.792Z,14.50
2023-04-02T16:36:31.423Z,14.72
2023-04-02T16:39:42.072Z,14.95
2023-04-02T16:43:14.016Z,14.96
2023-04-02T16:46:55.729Z,14.79
2023-04-02T16:50:16.430Z,14.36
2023-04-02T16:53:27.687Z,14.11
2023-04-02T16:56:39.652Z,14.06
2023-04-02T16:59:45.112Z,13.87
2023-04-02T17:03:15.096Z,13.86
2023-04-02T17:06:26.612Z,13.83
2023-04-02T17:09:39.893Z,13.75
2023-04-02T17:12:47.043Z,13.63
2023-04-02T17:16:14.559Z,13.54
2023-04-02T17:19:17.327Z,13.33
2023-04-02T17:22:21.723Z,13.19
2023-04-02T17:25:30.780Z,13.06
2023-04-02T17:28:39.288Z,12.98
2023-04-02T17:31:42.801Z,12.73
2023-04-02T17:34:45.855Z,12.77
2023-04-02T17:38:15.087Z,12.66
2023-04-02T17:41:38.665Z,12.40
2023-04-02T17:44:47.129Z,12.55
2023-04-02T17:47:56.411Z,12.30
2023-04-02T17:51:30.373Z,12.24
2023-04-02T17:54:42.767Z,12.01
2023-04-02T17:58:01.331Z,12.00
2023-04-02T18:01:06.997Z,11.86
2023-04-02T18:04:22.221Z,11.75
2023-04-02T18:07:43.344Z,11.75
2023-04-02T18:11:05.229Z,11.63
2023-04-02T18:14:37.846Z,11.53
2023-04-02T18:17:53.482Z,11.51
2023-04-02T18:21:26.695Z,11.50
2023-04-02T18:24:46.513Z,11.35
2023-04-02T18:28:16.472Z,11.12
2023-04-02T18:31:33.625Z,10.96
2023-04-02T18:34:48.155Z,10.95
2023-04-02T18:38:28.284Z,11.07
2023-04-02T18:41:49.181Z,11.01
2023-04-02T18:45:10.824Z,11.03
2023-04-02T18:48:28.967Z,10.90
2023-04-02T18:51:34.649Z,10.75
2023-04-02T18:54:52.960Z,10.77
2023-04-02T18:58:21.545Z,10.65
2023-04-02T19:01:33.519Z,10.59
2023-04-02T19:04:36.298Z,10.55
2023-04-02T19:07:39.346Z,10.55
2023-04-02T19:10:46.507Z,10.46
2023-04-02T19:13:51.421Z,10.43
2023-04-02T19:17:15.064Z,10.43
2023-04-02T19:20:44.186Z,10.35
2023-04-02T19:24:03.050Z,10.31
2023-04-02T19:27:28.451Z,10.23
2023-04-02T19:30:59.410Z,10.01
2023-04-02T19:34:46.944Z,9.98
2023-04-02T19:38:10.703Z,9.90
2023-04-02T19:41:36.073Z,9.85
2023-04-02T19:44:39.878Z,9.93
2023-04-02T19:47:42.470Z,9.88
2023-04-02T19:50:45.608Z,9.88
2023-04-02T19:53:47.983Z,9.76
2023-04-02T19:56:50.511Z,9.81
2023-04-02T19:59:53.002Z,9.71
2023-04-02T20:02:55.445Z,9.74
2023-04-02T20:06:10.057Z,9.86
2023-04-02T20:09:12.480Z,9.81
2023-04-02T20:12:14.913Z,9.79
2023-04-02T20:15:17.399Z,9.78
2023-04-02T20:18:20.569Z,9.82
2023-04-02T20:21:23.036Z,9.86
2023-04-02T20:24:25.963Z,9.77
2023-04-02T20:27:28.428Z,9.72
2023-04-02T20:30:32.513Z,9.74
2023-04-02T20:33:35.787Z,9.94
2023-04-02T20:36:38.272Z,9.97
2023-04-02T20:39:41.010Z,9.93
2023-04-02T20:42:43.471Z,9.91
2023-04-02T20:45:59.266Z,9.80
2023-04-02T20:49:02.392Z,9.79
2023-04-02T20:52:05.248Z,9.75
2023-04-02T20:55:08.744Z,9.68
2023-04-02T20:58:11.324Z,9.64
2023-04-02T21:01:24.049Z,9.65
2023-04-02T21:04:27.949Z,9.58
2023-04-02T21:07:30.576Z,9.54
2023-04-02T21:10:32.944Z,9.68
2023-04-02T21:13:36.764Z,9.65
2023-04-02T21:16:40.524Z,9.54
2023-04-02T21:19:43.969Z,9.44
2023-04-02T21:22:46.501Z,9.46
2023-04-02T21:25:59.598Z,9.61
2023-04-02T21:29:02.245Z,9.57
2023-04-02T21:32:14.485Z,9.60
2023-04-02T21:35:23.754Z,9.55
2023-04-02T21:38:26.529Z,9.55
2023-04-02T21:41:31.256Z,9.53
2023-04-02T21:44:33.755Z,9.43
2023-04-02T21:47:36.292Z,9.36
2023-04-02T21:50:38.748Z,9.42
2023-04-02T21:53:41.443Z,9.31
2023-04-02T21:56:44.841Z,9.42
2023-04-02T21:59:47.304Z,9.41
2023-04-02T22:02:49.833Z,9.37
2023-04-02T22:06:09.546Z,9.30
2023-04-02T22:09:16.797Z,9.37
2023-04-02T22:12:19.207Z,9.37
2023-04-02T22:15:21.737Z,9.43
2023-04-02T22:18:24.210Z,9.31
2023-04-02T22:21:26.723Z,9.30
2023-04-02T22:24:29.233Z,9.25
2023-04-02T22:27:31.635Z,9.25
2023-04-02T22:30:34.448Z,9.29
2023-04-02T22:33:37.323Z,9.34
2023-04-02T22:36:39.807Z,9.27
2023-04-02T22:39:42.186Z,9.33
2023-04-02T22:42:44.631Z,9.27
2023-04-02T22:45:50.069Z,9.25
2023-04-02T22:48:53.586Z,9.32
2023-04-02T22:51:56.012Z,9.25
2023-04-02T22:54:58.465Z,9.28
2023-04-02T22:58:00.836Z,9.22
2023-04-02T23:01:33.128Z,8.96
2023-04-02T23:04:36.405Z,8.95
2023-04-02T23:07:38.830Z,9.07
2023-04-02T23:10:41.355Z,9.07
2023-04-02T23:13:43.908Z,9.07
2023-04-02T23:16:46.406Z,8.97
2023-04-02T23:19:48.852Z,8.89
2023-04-02T23:22:51.375Z,8.80
2023-04-02T23:26:14.369Z,8.82
2023-04-02T23:29:16.744Z,8.74
2023-04-02T23:32:19.735Z,8.72
2023-04-02T23:35:22.154Z,8.67
2023-04-02T23:38:25.659Z,8.69
2023-04-02T23:41:28.440Z,8.70
2023-04-02T23:44:31.071Z,8.64
2023-04-02T23:47:33.635Z,8.53
2023-04-02T23:50:36.266Z,8.55
2023-04-02T23:53:39.148Z,8.57
2023-04-02T23:56:41.743Z,8.49
2023-04-02T23:59:44.108Z,8.54
